Time;durP1;ratioP1;P1;durP2;ratioP2;P2;SDS_P1;SDS_P2;PMS_P1;PMS_P2;Temp;Humidity;BMP_temperature;BMP_pressure;BME280_temperature;BME280_humidity;BME280_pressure;Samples;Min_cycle;Max_cycle;Signal;HPM_P1;HPM_P2
2022/08/08 00:00:16;;;;;;;4.85;2.90;;;21.50;52.60;;;;;;6072933;23;20589;-90
2022/08/08 00:03:12;;;;;;;3.20;2.60;;;21.40;52.60;;;;;;6075818;23;20187;-90
2022/08/08 00:06:00;;;;;;;3.35;3.00;;;21.50;52.60;;;;;;6071990;23;20507;-90
2022/08/08 00:08:41;;;;;;;3.58;2.88;;;21.50;52.60;;;;;;6072221;23;20233;-90
2022/08/08 00:11:28;;;;;;;3.03;2.60;;;21.40;52.60;;;;;;6073976;23;20690;-90
2022/08/08 00:14:02;;;;;;;2.60;2.35;;;21.40;52.60;;;;;;6076924;23;20149;-90
2022/08/08 00:16:45;;;;;;;3.08;2.70;;;21.40;52.60;;;;;;6143354;23;20160;-90
2022/08/08 00:19:28;;;;;;;2.80;2.50;;;21.50;52.70;;;;;;6071822;23;20163;-90
2022/08/08 00:21:59;;;;;;;3.15;2.80;;;21.40;52.70;;;;;;6095195;23;20232;-90
2022/08/08 00:24:39;;;;;;;3.25;2.72;;;21.40;52.70;;;;;;6072961;23;20177;-90
2022/08/08 00:27:07;;;;;;;3.35;3.00;;;21.50;52.60;;;;;;6074379;23;20145;-90
2022/08/08 00:29:54;;;;;;;3.03;2.60;;;21.50;53.30;;;;;;6072361;23;20157;-90
2022/08/08 00:32:24;;;;;;;3.08;2.50;;;21.50;52.60;;;;;;6072954;23;20148;-90
2022/08/08 00:35:19;;;;;;;3.78;3.00;;;21.50;52.60;;;;;;6072324;23;20233;-90
2022/08/08 00:38:12;;;;;;;3.10;2.60;;;21.40;52.60;;;;;;6076212;23;20141;-90
2022/08/08 00:40:55;;;;;;;3.28;2.80;;;21.40;52.60;;;;;;6077582;23;20145;-90
2022/08/08 00:43:40;;;;;;;3.42;2.70;;;21.40;52.60;;;;;;6162829;23;20185;-90
2022/08/08 00:46:40;;;;;;;3.33;2.78;;;21.50;52.60;;;;;;5992162;23;20176;-90
2022/08/08 00:49:40;;;;;;;3.25;2.75;;;21.50;52.60;;;;;;6162794;23;20149;-89
2022/08/08 00:52:41;;;;;;;3.50;2.78;;;21.40;52.60;;;;;;6163467;23;20154;-90
2022/08/08 00:55:34;;;;;;;3.10;2.60;;;21.40;52.60;;;;;;6013808;23;20192;-90
2022/08/08 00:58:41;;;;;;;3.65;3.05;;;21.50;52.70;;;;;;6015227;23;20692;-90
2022/08/08 01:01:31;;;;;;;2.83;2.53;;;21.40;52.60;;;;;;6041835;23;20189;-90
2022/08/08 01:04:21;;;;;;;3.15;2.78;;;21.50;52.70;;;;;;6046296;23;20276;-90
2022/08/08 01:07:22;;;;;;;3.47;2.90;;;21.50;52.80;;;;;;6043165;23;20149;-90
2022/08/08 01:10:11;;;;;;;3.10;2.70;;;21.40;52.70;;;;;;6042819;23;20157;-90
2022/08/08 01:12:55;;;;;;;3.22;2.70;;;21.40;52.80;;;;;;6045487;23;20161;-91
2022/08/08 01:16:02;;;;;;;2.55;2.30;;;21.40;52.80;;;;;;6216324;23;20157;-90
2022/08/08 01:19:01;;;;;;;3.55;2.90;;;21.40;52.80;;;;;;6198922;23;20204;-91
2022/08/08 01:22:00;;;;;;;2.92;2.55;;;21.40;52.80;;;;;;6202175;23;20157;-91
2022/08/08 01:24:51;;;;;;;2.92;2.63;;;21.40;52.80;;;;;;6198182;23;20184;-90
2022/08/08 01:27:41;;;;;;;3.15;2.80;;;21.40;52.80;;;;;;6222872;23;20137;-91
2022/08/08 01:30:35;;;;;;;3.22;2.65;;;21.30;52.80;;;;;;6198463;23;20153;-91
2022/08/08 01:33:32;;;;;;;3.42;2.88;;;21.40;52.90;;;;;;6200709;23;20152;-91
2022/08/08 01:36:32;;;;;;;3.53;2.90;;;21.40;52.90;;;;;;6225560;23;20478;-90
2022/08/08 01:39:32;;;;;;;3.22;2.92;;;21.40;52.90;;;;;;6225693;23;20635;-90
2022/08/08 01:42:13;;;;;;;3.38;2.85;;;21.40;52.90;;;;;;6200213;23;20149;-90
2022/08/08 01:45:05;;;;;;;3.25;2.65;;;21.30;52.90;;;;;;6200230;23;20161;-90
2022/08/08 01:47:49;;;;;;;3.78;2.88;;;21.40;52.90;;;;;;6106635;23;20178;-90
2022/08/08 01:50:39;;;;;;;3.17;2.88;;;21.40;52.90;;;;;;6102208;23;20148;-90
2022/08/08 01:53:31;;;;;;;3.78;2.78;;;21.40;52.90;;;;;;6101661;23;20156;-90
2022/08/08 01:56:28;;;;;;;3.20;2.47;;;21.40;53.00;;;;;;6101968;22;20231;-89
2022/08/08 01:59:24;;;;;;;3.40;2.70;;;21.40;52.90;;;;;;6106839;23;20583;-90
2022/08/08 02:02:14;;;;;;;3.42;2.88;;;21.40;53.00;;;;;;6109844;23;20209;-90
2022/08/08 02:04:57;;;;;;;3.00;2.60;;;21.30;52.90;;;;;;6111222;23;20152;-90
2022/08/08 02:07:45;;;;;;;3.20;2.70;;;21.40;53.00;;;;;;6086633;23;20237;-90
2022/08/08 02:10:39;;;;;;;3.15;2.65;;;21.40;53.00;;;;;;6110320;23;20151;-90
2022/08/08 02:13:23;;;;;;;2.90;2.63;;;21.40;53.00;;;;;;6106192;23;20234;-89
2022/08/08 02:16:00;;;;;;;3.58;2.83;;;21.40;53.00;;;;;;6084670;23;20163;-90
2022/08/08 02:18:38;;;;;;;3.20;2.67;;;21.40;53.00;;;;;;6084398;23;20155;-90
2022/08/08 02:24:14;;;;;;;3.30;2.60;;;21.40;53.10;;;;;;6116179;23;20279;-90
2022/08/08 02:26:52;;;;;;;3.20;2.90;;;21.40;53.00;;;;;;6082470;23;20163;-90
2022/08/08 02:29:45;;;;;;;3.67;2.83;;;21.40;53.00;;;;;;6083366;23;20155;-89
2022/08/08 02:32:35;;;;;;;3.30;2.58;;;21.40;53.00;;;;;;6110522;23;20166;-89
2022/08/08 02:35:29;;;;;;;3.40;2.90;;;21.40;53.70;;;;;;6111217;23;20162;-90
2022/08/08 02:38:15;;;;;;;3.60;3.00;;;21.40;53.10;;;;;;6107334;23;20474;-91
2022/08/08 02:41:05;;;;;;;3.15;2.70;;;21.40;53.10;;;;;;6109842;23;20179;-90
2022/08/08 02:43:48;;;;;;;3.60;2.80;;;21.30;53.10;;;;;;6134641;23;20208;-90
2022/08/08 02:46:36;;;;;;;3.13;2.58;;;21.40;53.10;;;;;;6085676;23;20453;-90
2022/08/08 02:49:36;;;;;;;3.50;2.83;;;21.40;53.10;;;;;;6109670;23;20503;-90
2022/08/08 02:52:36;;;;;;;3.40;2.60;;;21.30;53.10;;;;;;6130243;23;20150;-90
2022/08/08 02:55:37;;;;;;;3.53;2.92;;;21.30;53.10;;;;;;6131108;23;20234;-90
2022/08/08 02:58:36;;;;;;;3.30;2.70;;;21.40;53.20;;;;;;6105192;23;20203;-90
2022/08/08 03:01:37;;;;;;;3.08;2.63;;;21.30;53.20;;;;;;6109088;23;20191;-90
2022/08/08 03:04:44;;;;;;;3.17;2.70;;;21.30;53.10;;;;;;6085186;23;20175;-91
2022/08/08 03:07:47;;;;;;;3.30;2.60;;;21.30;53.20;;;;;;6085213;23;20154;-90
2022/08/08 03:10:47;;;;;;;3.42;2.70;;;21.40;53.20;;;;;;6126639;23;20140;-90
2022/08/08 03:13:44;;;;;;;3.13;2.55;;;21.30;53.20;;;;;;6126495;23;20212;-90
2022/08/08 03:16:27;;;;;;;3.13;2.78;;;21.30;53.20;;;;;;6126274;23;20286;-89
2022/08/08 03:19:00;;;;;;;2.97;2.58;;;21.40;53.30;;;;;;6102566;23;20595;-89
2022/08/08 03:21:27;;;;;;;3.08;2.70;;;21.30;53.50;;;;;;6079025;23;20179;-90
2022/08/08 03:24:00;;;;;;;3.10;2.75;;;21.40;53.30;;;;;;6127273;23;20203;-90
2022/08/08 03:26:55;;;;;;;3.10;2.60;;;21.30;53.30;;;;;;6079146;23;20626;-91
2022/08/08 03:29:26;;;;;;;2.88;2.58;;;21.30;53.30;;;;;;6102104;23;20599;-90
2022/08/08 03:34:35;;;;;;;3.45;2.95;;;21.30;53.30;;;;;;6126013;23;20478;-90
2022/08/08 03:37:02;;;;;;;3.35;3.05;;;21.30;53.30;;;;;;6078015;23;20159;-90
2022/08/08 03:39:35;;;;;;;2.55;2.28;;;21.40;53.30;;;;;;6078988;23;20154;-90
2022/08/08 03:42:07;;;;;;;3.38;2.85;;;21.30;53.30;;;;;;6126574;23;20132;-91
2022/08/08 03:44:34;;;;;;;3.33;2.70;;;21.30;53.30;;;;;;6103210;23;20210;-89
2022/08/08 03:47:03;;;;;;;3.28;2.58;;;21.30;53.30;;;;;;6077950;23;20202;-90
2022/08/08 03:49:28;;;;;;;2.97;2.58;;;21.30;53.30;;;;;;6101953;23;20152;-91
2022/08/08 03:51:56;;;;;;;3.30;2.72;;;21.30;53.30;;;;;;6079352;23;20176;-90
2022/08/08 03:54:32;;;;;;;3.15;2.63;;;21.30;53.40;;;;;;6019518;23;20162;-90
2022/08/08 03:56:58;;;;;;;3.25;2.78;;;21.30;53.40;;;;;;6055133;23;20208;-90
2022/08/08 03:59:31;;;;;;;3.15;2.78;;;21.30;53.40;;;;;;6071351;23;20248;-90
2022/08/08 04:01:58;;;;;;;3.38;2.63;;;21.30;53.40;;;;;;6047720;23;20214;-90
2022/08/08 04:04:35;;;;;;;3.35;2.90;;;21.30;53.40;;;;;;6071405;23;20603;-90
2022/08/08 04:07:09;;;;;;;3.63;2.88;;;21.30;53.40;;;;;;6071384;23;20149;-90
2022/08/08 04:09:42;;;;;;;3.92;3.05;;;21.30;53.40;;;;;;6069894;23;20164;-90
2022/08/08 04:12:07;;;;;;;3.22;2.60;;;21.30;53.40;;;;;;6070185;23;20148;-89
2022/08/08 04:14:35;;;;;;;3.72;2.95;;;21.30;53.40;;;;;;6069363;23;20153;-90
2022/08/08 04:17:01;;;;;;;3.50;2.78;;;21.30;53.50;;;;;;6046176;23;20152;-90
2022/08/08 04:19:28;;;;;;;2.83;2.50;;;21.30;53.50;;;;;;6069698;23;20600;-90
2022/08/08 04:21:54;;;;;;;3.47;2.67;;;21.30;53.50;;;;;;6070229;23;20148;-89
2022/08/08 04:24:27;;;;;;;2.90;2.60;;;21.30;53.60;;;;;;6072607;23;20179;-90
2022/08/08 04:26:53;;;;;;;3.70;2.70;;;21.30;53.50;;;;;;6099504;23;20224;-90
2022/08/08 04:29:19;;;;;;;3.38;2.85;;;21.30;53.60;;;;;;6075054;23;20148;-90
2022/08/08 04:31:45;;;;;;;3.42;2.70;;;21.30;53.60;;;;;;6124378;23;20174;-89
2022/08/08 04:34:11;;;;;;;3.22;2.60;;;21.30;53.60;;;;;;6075506;23;20167;-90
2022/08/08 04:36:37;;;;;;;3.40;2.80;;;21.30;53.60;;;;;;6075786;23;20144;-89
2022/08/08 04:39:03;;;;;;;3.03;2.63;;;21.30;53.70;;;;;;6076957;23;20155;-90
2022/08/08 04:41:29;;;;;;;3.60;2.97;;;21.30;53.70;;;;;;6075882;23;20239;-90
2022/08/08 04:43:56;;;;;;;3.53;2.80;;;21.30;53.70;;;;;;6076985;23;20262;-90
2022/08/08 04:46:22;;;;;;;3.40;2.60;;;21.30;53.70;;;;;;6078314;23;20144;-90
2022/08/08 04:48:50;;;;;;;3.05;2.65;;;21.40;53.70;;;;;;6077872;23;20168;-90
2022/08/08 04:51:17;;;;;;;3.58;2.85;;;21.30;53.70;;;;;;6079438;23;20564;-90
2022/08/08 04:53:49;;;;;;;3.35;2.55;;;21.40;53.80;;;;;;6079927;23;20198;-92
2022/08/08 04:56:16;;;;;;;3.47;2.75;;;21.30;53.70;;;;;;6107238;23;20151;-89
2022/08/08 04:58:54;;;;;;;3.40;2.88;;;21.40;53.70;;;;;;6085400;23;20164;-91
2022/08/08 05:01:24;;;;;;;3.17;2.70;;;21.40;53.70;;;;;;6226869;23;20157;-90
2022/08/08 05:04:01;;;;;;;3.25;2.72;;;21.40;53.90;;;;;;6202056;23;20215;-91
2022/08/08 05:06:32;;;;;;;3.50;2.90;;;21.30;54.20;;;;;;6167633;23;20157;-91
2022/08/08 05:09:03;;;;;;;3.88;2.83;;;21.40;54.80;;;;;;6120616;23;20151;-91
2022/08/08 05:11:39;;;;;;;3.20;2.65;;;21.50;54.70;;;;;;6108534;23;20160;-91
2022/08/08 05:14:11;;;;;;;3.38;3.03;;;21.50;54.30;;;;;;6109529;23;20139;-91
2022/08/08 05:16:41;;;;;;;3.72;2.83;;;21.50;54.60;;;;;;6013387;23;20171;-90
2022/08/08 05:19:14;;;;;;;3.60;2.92;;;21.50;54.30;;;;;;6013937;23;20183;-90
2022/08/08 05:21:48;;;;;;;3.45;2.83;;;21.60;54.70;;;;;;6042035;23;20169;-90
2022/08/08 05:24:19;;;;;;;3.35;2.88;;;21.70;54.40;;;;;;6017869;23;20256;-90
2022/08/08 05:26:50;;;;;;;4.13;3.10;;;21.70;54.30;;;;;;6018309;23;20648;-91
2022/08/08 05:29:23;;;;;;;3.35;2.90;;;21.60;54.50;;;;;;5990085;24;20159;-91
2022/08/08 05:31:58;;;;;;;3.40;2.78;;;21.60;54.50;;;;;;5949914;24;20222;-91
2022/08/08 05:34:29;;;;;;;3.60;2.85;;;21.60;54.40;;;;;;5962214;24;20700;-90
2022/08/08 05:37:01;;;;;;;3.63;2.95;;;21.70;54.60;;;;;;5933386;24;20160;-90
2022/08/08 05:39:53;;;;;;;3.97;3.40;;;21.70;54.50;;;;;;5939844;24;20243;-90
2022/08/08 05:42:40;;;;;;;4.07;3.20;;;21.70;54.80;;;;;;5960653;24;20160;-90
2022/08/08 05:45:16;;;;;;;4.15;3.17;;;21.70;54.70;;;;;;5907380;24;20539;-90
2022/08/08 05:47:55;;;;;;;3.83;3.10;;;21.80;54.60;;;;;;5829711;24;20830;-91
2022/08/08 05:50:41;;;;;;;3.97;3.10;;;21.70;54.70;;;;;;5896086;24;20222;-90
2022/08/08 05:53:09;;;;;;;3.72;3.10;;;21.80;54.90;;;;;;5855284;24;20168;-91
2022/08/08 05:55:50;;;;;;;3.67;3.20;;;21.80;55.40;;;;;;5847524;24;20160;-90
2022/08/08 05:58:22;;;;;;;3.97;3.15;;;21.90;55.00;;;;;;5834802;24;20203;-90
2022/08/08 06:00:49;;;;;;;3.60;3.10;;;21.90;54.90;;;;;;5866646;24;20168;-90
2022/08/08 06:03:20;;;;;;;4.05;3.28;;;21.90;55.10;;;;;;5799897;24;20235;-89
2022/08/08 06:05:52;;;;;;;4.38;3.40;;;21.90;55.20;;;;;;5781035;24;20161;-90
2022/08/08 06:08:24;;;;;;;4.13;3.33;;;21.90;55.20;;;;;;5854202;24;20166;-89
2022/08/08 06:10:49;;;;;;;4.10;3.20;;;21.90;55.40;;;;;;5857558;24;20635;-88
2022/08/08 06:13:18;;;;;;;4.32;3.28;;;22.00;55.50;;;;;;5858110;24;20165;-87
2022/08/08 06:15:46;;;;;;;3.63;2.92;;;22.00;55.40;;;;;;5936841;24;20197;-88
2022/08/08 06:18:14;;;;;;;4.22;3.50;;;22.00;55.30;;;;;;6010315;23;20161;-87
2022/08/08 06:21:11;;;;;;;3.65;3.22;;;22.00;55.30;;;;;;6053201;23;20233;-90
2022/08/08 06:24:11;;;;;;;4.80;3.50;;;22.10;55.60;;;;;;5999234;23;20186;-90
2022/08/08 10:14:34;;;;;;;5.72;2.90;;;22.50;54.60;;;;;;6242982;22;20449;-87
2022/08/08 10:17:29;;;;;;;9.15;3.17;;;22.50;54.40;;;;;;6138561;23;20170;-89
2022/08/08 10:20:00;;;;;;;7.07;3.25;;;22.50;54.30;;;;;;6113445;23;20152;-87
2022/08/08 10:23:16;;;;;;;;;;;;;;;;;;;;;
2022/08/08 10:25:55;;;;;;;7.75;3.58;;;22.60;54.50;;;;;;6083644;23;20188;-87
2022/08/08 10:28:24;;;;;;;6.40;3.00;;;22.70;53.70;;;;;;6034881;23;20145;-87
2022/08/08 10:33:59;;;;;;;9.82;3.35;;;22.70;53.90;;;;;;6076299;23;20161;-87
2022/08/08 10:36:33;;;;;;;11.52;3.45;;;22.70;53.70;;;;;;6053561;23;20172;-87
2022/08/08 10:39:11;;;;;;;13.98;3.25;;;22.70;53.60;;;;;;6052548;23;20156;-88
2022/08/08 10:42:01;;;;;;;13.38;3.38;;;22.80;53.70;;;;;;6139176;23;20156;-88
2022/08/08 10:45:03;;;;;;;8.32;3.10;;;22.80;53.50;;;;;;6118063;23;20535;-87
2022/08/08 10:47:44;;;;;;;9.82;3.25;;;22.70;53.70;;;;;;6032154;23;20609;-87
2022/08/08 10:50:29;;;;;;;11.63;3.22;;;22.70;53.70;;;;;;6058902;23;20281;-88
2022/08/08 10:53:24;;;;;;;12.57;3.40;;;22.80;53.00;;;;;;6025337;23;20166;-88
2022/08/08 10:55:58;;;;;;;13.65;3.72;;;22.80;53.40;;;;;;6027255;23;20162;-88
2022/08/08 10:58:51;;;;;;;14.60;3.42;;;22.80;53.30;;;;;;6027032;23;20184;-88
2022/08/08 11:01:35;;;;;;;8.18;3.05;;;22.70;53.50;;;;;;6057759;23;20177;-88
2022/08/08 11:04:10;;;;;;;8.43;2.78;;;22.80;53.10;;;;;;5994448;23;20197;-89
2022/08/08 11:07:09;;;;;;;6.30;2.92;;;22.80;52.80;;;;;;5962036;24;20172;-89
2022/08/08 11:10:03;;;;;;;15.32;2.95;;;22.90;52.80;;;;;;5937669;24;20175;-89
2022/08/08 11:16:17;;;;;;;;;;;;;;;;;;;;;
2022/08/08 11:19:26;;;;;;;10.70;3.15;;;23.00;52.50;;;;;;5794541;24;20179;-88
2022/08/08 11:22:04;;;;;;;8.70;2.50;;;22.90;52.80;;;;;;5788385;24;20160;-90
2022/08/08 11:25:09;;;;;;;;;;;;;;;;;;;;;
2022/08/08 11:28:20;;;;;;;;;;;;;;;;;;;;;
2022/08/08 11:30:45;;;;;;;10.45;3.25;;;22.80;52.90;;;;;;5802851;24;20164;-89
2022/08/08 11:37:20;;;;;;;;;;;;;;;;;;;;;
2022/08/08 11:40:15;;;;;;;10.98;2.85;;;22.90;52.30;;;;;;5838416;24;20190;-90
2022/08/08 11:43:35;;;;;;;;;;;;;;;;;;;;;
2022/08/08 11:50:19;;;;;;;;;;;;;;;;;;;;;
2022/08/08 11:53:41;;;;;;;18.52;3.15;;;23.00;51.80;;;;;;5928031;24;20184;-89
2022/08/08 16:01:38;;;;;;;1.70;1.60;;;22.90;45.60;;;;;;6159736;23;20150;-88
2022/08/08 16:04:04;;;;;;;1.75;1.65;;;22.90;45.50;;;;;;6109885;23;20174;-87
2022/08/08 16:06:30;;;;;;;2.15;1.48;;;23.00;45.40;;;;;;6111125;23;20136;-87
2022/08/08 16:08:56;;;;;;;1.70;1.60;;;22.90;45.20;;;;;;6134634;23;20444;-88
2022/08/08 16:11:24;;;;;;;2.63;1.50;;;22.90;45.20;;;;;;6111060;23;20143;-89
2022/08/08 16:13:49;;;;;;;3.08;1.55;;;22.90;45.10;;;;;;6110170;23;20139;-88
2022/08/08 16:16:15;;;;;;;1.67;1.50;;;22.90;45.10;;;;;;6110563;23;20254;-88
2022/08/08 16:18:42;;;;;;;1.85;1.70;;;22.90;45.30;;;;;;6111328;23;20145;-89
2022/08/08 16:21:13;;;;;;;1.30;1.20;;;22.90;45.00;;;;;;6134288;23;20162;-88
2022/08/08 16:23:39;;;;;;;1.70;1.58;;;22.90;44.90;;;;;;6134370;23;20161;-89
2022/08/08 16:26:05;;;;;;;1.83;1.48;;;23.00;44.90;;;;;;6110052;23;20200;-89
2022/08/08 16:28:31;;;;;;;1.27;1.17;;;22.90;45.00;;;;;;6109724;23;20159;-89
2022/08/08 16:30:57;;;;;;;1.88;1.40;;;22.90;44.90;;;;;;6109429;23;20189;-88
2022/08/08 16:33:25;;;;;;;1.60;1.50;;;22.90;45.00;;;;;;6109909;23;20147;-89
2022/08/08 16:35:52;;;;;;;1.90;1.60;;;22.90;45.10;;;;;;6134911;23;20214;-89
2022/08/08 16:38:19;;;;;;;1.45;1.35;;;22.80;45.30;;;;;;6134119;23;20227;-88
2022/08/08 16:40:45;;;;;;;1.80;1.50;;;22.80;45.30;;;;;;6087597;23;20541;-88
2022/08/08 16:43:11;;;;;;;1.70;1.40;;;22.80;45.50;;;;;;6112686;23;20175;-89
2022/08/08 16:45:37;;;;;;;1.70;1.60;;;22.80;45.50;;;;;;6112095;23;20132;-88
2022/08/08 16:48:03;;;;;;;1.65;1.55;;;22.80;45.50;;;;;;6111660;23;20139;-89
2022/08/08 16:50:29;;;;;;;1.63;1.52;;;22.80;45.60;;;;;;6111344;23;20146;-88
2022/08/08 16:52:55;;;;;;;1.40;1.30;;;22.70;45.60;;;;;;6111557;23;20136;-89
2022/08/08 16:55:23;;;;;;;1.50;1.40;;;22.80;45.70;;;;;;6111333;23;20139;-88
2022/08/08 16:57:49;;;;;;;1.83;1.40;;;22.80;45.70;;;;;;6111331;23;20144;-88
2022/08/08 17:00:15;;;;;;;3.10;1.55;;;22.80;45.70;;;;;;6096176;23;20260;-89
2022/08/08 17:02:46;;;;;;;2.78;1.55;;;22.80;45.80;;;;;;6086717;23;20151;-88
2022/08/08 17:05:13;;;;;;;1.55;1.40;;;22.80;46.00;;;;;;6110693;23;20170;-89
2022/08/08 17:07:38;;;;;;;1.85;1.65;;;22.80;46.00;;;;;;6111809;23;20151;-88
2022/08/08 17:10:06;;;;;;;1.70;1.60;;;22.80;46.10;;;;;;6112303;23;20135;-89
2022/08/08 17:12:31;;;;;;;3.33;1.60;;;22.70;46.20;;;;;;6088338;23;20185;-88
2022/08/08 17:14:58;;;;;;;2.47;1.40;;;22.70;46.30;;;;;;6086995;23;20143;-89
2022/08/08 17:17:24;;;;;;;1.58;1.42;;;22.70;46.30;;;;;;6111680;23;20235;-87
2022/08/08 17:19:53;;;;;;;2.53;1.88;;;22.80;46.30;;;;;;6086753;23;20148;-88
2022/08/08 17:22:19;;;;;;;1.80;1.48;;;22.80;46.40;;;;;;6088884;23;20213;-88
2022/08/08 17:24:45;;;;;;;1.73;1.60;;;22.80;46.40;;;;;;6136112;23;20202;-89
2022/08/08 17:27:16;;;;;;;2.95;1.40;;;22.80;46.40;;;;;;6111699;23;20139;-89
2022/08/08 17:29:44;;;;;;;2.47;1.67;;;22.80;46.40;;;;;;6111796;23;20144;-89
2022/08/08 17:32:10;;;;;;;3.20;1.70;;;22.70;46.40;;;;;;6087244;23;20143;-89
2022/08/08 17:34:36;;;;;;;1.98;1.50;;;22.80;46.40;;;;;;6087549;23;20618;-89
2022/08/08 17:37:04;;;;;;;2.53;1.92;;;22.70;46.40;;;;;;6110841;23;20136;-89
2022/08/08 17:39:31;;;;;;;2.00;1.58;;;22.80;46.40;;;;;;6134082;23;20189;-88
2022/08/08 17:41:58;;;;;;;3.47;1.70;;;22.80;46.40;;;;;;6085618;23;20155;-89
2022/08/08 17:44:24;;;;;;;1.90;1.40;;;22.80;46.40;;;;;;6134592;23;20171;-89
2022/08/08 17:46:53;;;;;;;2.58;1.73;;;22.70;46.30;;;;;;6112046;23;20181;-89
2022/08/08 17:49:21;;;;;;;1.30;1.20;;;22.70;46.40;;;;;;6088569;23;20154;-88
2022/08/08 17:51:47;;;;;;;1.42;1.33;;;22.70;46.30;;;;;;6089492;23;20203;-89
2022/08/08 17:54:13;;;;;;;2.70;1.50;;;22.80;46.30;;;;;;6111984;23;20148;-88
2022/08/08 17:56:39;;;;;;;1.70;1.52;;;22.70;46.30;;;;;;6112081;23;20158;-88
2022/08/08 17:59:08;;;;;;;1.55;1.42;;;22.70;46.40;;;;;;6088317;23;20147;-89
2022/08/08 18:01:55;;;;;;;1.65;1.40;;;22.70;46.40;;;;;;6140524;23;20144;-89
2022/08/08 18:04:24;;;;;;;2.35;1.45;;;22.70;46.40;;;;;;6164699;22;20182;-89
2022/08/08 18:06:50;;;;;;;2.00;1.42;;;22.60;47.00;;;;;;6115695;23;20154;-87
2022/08/08 18:09:26;;;;;;;1.83;1.50;;;22.60;46.40;;;;;;6138090;23;20199;-89
2022/08/08 18:11:52;;;;;;;1.92;1.58;;;22.60;46.50;;;;;;6139732;23;20570;-90
2022/08/08 18:14:29;;;;;;;2.95;1.50;;;22.50;46.50;;;;;;6163949;23;20159;-89
2022/08/08 18:17:05;;;;;;;1.63;1.13;;;22.50;46.60;;;;;;6192841;23;20134;-88
2022/08/08 18:19:34;;;;;;;1.30;1.20;;;22.60;46.70;;;;;;6144697;23;20138;-87
2022/08/08 18:22:10;;;;;;;2.35;1.50;;;22.50;46.60;;;;;;6117766;23;20230;-88
2022/08/08 18:24:45;;;;;;;1.33;1.23;;;22.50;46.60;;;;;;6145602;23;20159;-88
2022/08/08 18:27:13;;;;;;;1.70;1.60;;;22.60;46.60;;;;;;6120792;23;20154;-88
2022/08/08 18:29:49;;;;;;;1.85;1.67;;;22.50;46.60;;;;;;6117793;23;20151;-89
2022/08/08 18:32:15;;;;;;;2.58;1.40;;;22.50;46.70;;;;;;6143781;23;20131;-88
2022/08/08 18:34:43;;;;;;;2.28;1.40;;;22.50;46.80;;;;;;6142975;23;20211;-88
2022/08/08 18:37:10;;;;;;;1.85;1.70;;;22.50;46.90;;;;;;6120285;23;20144;-88
2022/08/08 18:39:37;;;;;;;4.13;1.30;;;22.40;46.90;;;;;;6118742;23;20155;-88
2022/08/08 18:42:13;;;;;;;1.38;1.27;;;22.40;47.00;;;;;;6119396;23;20157;-88
2022/08/08 18:44:51;;;;;;;1.60;1.50;;;22.40;47.00;;;;;;6144140;23;20177;-89
2022/08/08 18:47:19;;;;;;;1.40;1.30;;;22.40;47.10;;;;;;6119825;23;20166;-89
2022/08/08 18:49:48;;;;;;;1.42;1.33;;;22.40;47.30;;;;;;6118203;23;20139;-89
2022/08/08 18:52:16;;;;;;;1.50;1.40;;;22.30;47.30;;;;;;6118139;23;20139;-88
2022/08/08 18:54:50;;;;;;;1.45;1.30;;;22.40;47.30;;;;;;6117125;23;20143;-88
2022/08/08 18:57:16;;;;;;;1.50;1.30;;;22.30;47.40;;;;;;6142832;23;20141;-89
2022/08/08 18:59:42;;;;;;;1.40;1.30;;;22.40;47.50;;;;;;6137548;22;20191;-88
2022/08/08 19:02:15;;;;;;;1.52;1.42;;;22.30;47.50;;;;;;6113909;23;20181;-89
2022/08/08 19:04:57;;;;;;;1.80;1.33;;;22.30;47.70;;;;;;6137826;23;20172;-89
2022/08/08 19:07:29;;;;;;;2.15;1.52;;;22.30;47.80;;;;;;6113513;23;20645;-89
2022/08/08 19:09:56;;;;;;;2.72;1.60;;;22.30;47.90;;;;;;6114680;23;20621;-89
2022/08/08 19:12:22;;;;;;;1.58;1.40;;;22.30;48.00;;;;;;6113454;23;20147;-88
2022/08/08 19:14:59;;;;;;;1.63;1.48;;;22.20;48.10;;;;;;6138457;23;20138;-89
2022/08/08 19:17:25;;;;;;;3.53;1.60;;;22.20;48.20;;;;;;6113766;23;20155;-89
2022/08/08 19:19:54;;;;;;;1.92;1.45;;;22.20;48.30;;;;;;6113673;23;20716;-88
2022/08/08 19:22:23;;;;;;;1.70;1.60;;;22.10;48.30;;;;;;6137059;23;20152;-89
2022/08/08 19:24:49;;;;;;;1.50;1.40;;;22.10;48.50;;;;;;6160295;23;20163;-89
2022/08/08 19:27:15;;;;;;;1.45;1.35;;;22.10;48.60;;;;;;6136824;23;20452;-88
2022/08/08 19:29:42;;;;;;;1.70;1.50;;;22.10;49.30;;;;;;6112106;23;20156;-88
2022/08/08 19:32:08;;;;;;;1.88;1.67;;;22.10;49.00;;;;;;6136253;23;20152;-88
2022/08/08 19:34:34;;;;;;;2.00;1.48;;;22.00;49.20;;;;;;6112932;23;20183;-89
2022/08/08 19:36:59;;;;;;;1.60;1.45;;;22.00;49.50;;;;;;6137583;23;20196;-88
2022/08/08 19:39:27;;;;;;;1.80;1.67;;;22.00;49.80;;;;;;6161666;23;20261;-89
2022/08/08 19:41:53;;;;;;;1.70;1.60;;;22.00;49.80;;;;;;6136038;23;20155;-89
2022/08/08 19:44:20;;;;;;;1.83;1.65;;;21.90;50.10;;;;;;6137102;23;20183;-89
2022/08/08 19:46:47;;;;;;;1.77;1.40;;;22.00;50.40;;;;;;6112023;23;20148;-88
2022/08/08 19:49:13;;;;;;;1.80;1.40;;;22.00;50.60;;;;;;6136447;23;20140;-89
2022/08/08 19:51:41;;;;;;;2.17;1.98;;;22.00;50.80;;;;;;6111824;23;20154;-89
2022/08/08 19:54:09;;;;;;;2.10;1.90;;;21.90;50.90;;;;;;6110928;23;20280;-89
2022/08/08 19:56:37;;;;;;;1.85;1.63;;;21.80;51.20;;;;;;6136866;22;20214;-89
2022/08/08 19:59:09;;;;;;;1.45;1.35;;;21.90;51.30;;;;;;6112562;23;20159;-89
2022/08/08 20:01:36;;;;;;;2.10;1.90;;;21.80;51.40;;;;;;6136528;23;20490;-88
2022/08/08 20:04:01;;;;;;;2.10;1.80;;;21.80;51.40;;;;;;6112265;23;20191;-88
2022/08/08 20:06:29;;;;;;;1.90;1.67;;;21.80;51.90;;;;;;6112022;23;20143;-89
2022/08/08 20:08:56;;;;;;;1.98;1.77;;;21.80;52.10;;;;;;6135706;23;20155;-89
2022/08/08 20:11:22;;;;;;;1.98;1.77;;;21.80;52.50;;;;;;6112339;23;20171;-89
2022/08/08 20:13:48;;;;;;;2.05;1.80;;;21.70;52.60;;;;;;6112397;23;20156;-89
2022/08/08 20:16:14;;;;;;;2.17;1.98;;;21.70;53.00;;;;;;6112965;23;20556;-89
2022/08/08 20:18:41;;;;;;;1.95;1.70;;;21.70;53.00;;;;;;6136449;23;20143;-89
2022/08/08 20:21:07;;;;;;;2.28;1.90;;;21.70;53.40;;;;;;6159977;23;20527;-90
2022/08/08 20:23:32;;;;;;;1.95;1.60;;;21.70;53.40;;;;;;6135919;23;20155;-89
2022/08/08 20:25:58;;;;;;;1.67;1.58;;;21.70;53.50;;;;;;6111720;23;20209;-90
2022/08/08 20:28:26;;;;;;;2.17;1.98;;;21.60;53.70;;;;;;6111568;23;20152;-89
2022/08/08 20:30:52;;;;;;;2.33;1.90;;;21.60;53.70;;;;;;6136677;22;20132;-89
2022/08/08 20:33:18;;;;;;;2.08;1.88;;;21.60;54.00;;;;;;6111648;23;20153;-90
2022/08/08 20:35:44;;;;;;;2.10;1.90;;;21.60;54.00;;;;;;6112742;23;20511;-89
2022/08/08 20:38:10;;;;;;;2.00;1.80;;;21.50;54.20;;;;;;6110487;23;20162;-89
2022/08/08 20:40:40;;;;;;;2.30;2.00;;;21.60;54.30;;;;;;6110624;23;20152;-89
2022/08/08 20:43:06;;;;;;;3.28;2.00;;;21.60;54.30;;;;;;6134674;23;20482;-89
2022/08/08 20:45:32;;;;;;;2.17;1.98;;;21.60;54.20;;;;;;6109330;23;20143;-90
2022/08/08 20:47:57;;;;;;;3.22;2.25;;;21.60;53.90;;;;;;6111585;23;20151;-90
2022/08/08 20:50:23;;;;;;;2.58;2.20;;;21.60;53.80;;;;;;6110538;23;20148;-89
2022/08/08 20:52:49;;;;;;;2.30;2.10;;;21.60;53.60;;;;;;6109941;23;20155;-89
2022/08/08 20:55:14;;;;;;;2.55;2.20;;;21.60;53.50;;;;;;6109419;23;20158;-89
2022/08/08 20:57:43;;;;;;;2.63;2.42;;;21.60;53.40;;;;;;6109949;23;20181;-89
2022/08/08 21:00:09;;;;;;;2.95;2.50;;;21.70;53.40;;;;;;6133836;22;20247;-89
2022/08/08 21:02:35;;;;;;;2.60;2.28;;;21.70;53.40;;;;;;6133559;23;20147;-89
2022/08/08 21:05:00;;;;;;;2.72;2.47;;;21.70;53.30;;;;;;6108778;23;20186;-90
2022/08/08 21:07:28;;;;;;;2.88;2.40;;;21.70;53.30;;;;;;6108059;23;20174;-89
2022/08/08 21:09:57;;;;;;;2.33;2.10;;;21.70;53.30;;;;;;6132338;23;20134;-89
2022/08/08 21:12:24;;;;;;;2.45;2.25;;;21.70;53.30;;;;;;6108426;23;20151;-89
2022/08/08 21:14:50;;;;;;;2.72;2.35;;;21.70;53.20;;;;;;6109767;23;20151;-89
2022/08/08 21:17:17;;;;;;;2.33;2.13;;;21.80;53.20;;;;;;6157260;23;20456;-89
2022/08/08 21:19:44;;;;;;;2.67;2.42;;;21.80;53.20;;;;;;6107997;23;20147;-90
2022/08/08 21:22:11;;;;;;;3.20;2.75;;;21.80;53.20;;;;;;6108479;23;20140;-90
2022/08/08 21:24:39;;;;;;;2.78;2.28;;;21.80;52.90;;;;;;6157069;23;20618;-89
2022/08/08 21:27:05;;;;;;;2.40;2.20;;;21.80;52.90;;;;;;6131880;23;20128;-88
2022/08/08 21:29:31;;;;;;;3.40;2.70;;;21.80;52.70;;;;;;6108141;23;20642;-89
2022/08/08 21:32:06;;;;;;;2.40;2.20;;;21.90;52.90;;;;;;6132498;22;20153;-89
2022/08/08 21:34:32;;;;;;;2.80;2.50;;;21.90;53.00;;;;;;6132583;23;20151;-89
2022/08/08 21:36:59;;;;;;;3.45;2.58;;;21.90;52.90;;;;;;6132370;22;20147;-89
2022/08/08 21:39:24;;;;;;;3.22;2.60;;;21.90;52.90;;;;;;6132081;23;20151;-89
2022/08/08 21:41:51;;;;;;;3.10;2.63;;;21.90;52.80;;;;;;6108782;23;20148;-89
2022/08/08 21:44:18;;;;;;;2.90;2.60;;;21.90;52.90;;;;;;6107258;23;20180;-89
2022/08/08 21:46:44;;;;;;;2.85;2.55;;;21.90;52.90;;;;;;6106915;23;20276;-89
2022/08/08 21:49:10;;;;;;;2.65;2.45;;;21.90;52.90;;;;;;6132366;23;20134;-89
2022/08/08 21:51:44;;;;;;;3.40;2.47;;;21.90;52.90;;;;;;6108404;23;20154;-89